sensor_id;sensor_type;location;lat;lon;timestamp;pressure;altitude;pressure_sealevel;temperature;humidity
50592;BME280;36548;50.506;30.834;2022-08-18T00:00:41;99480.17;;;22.18;67.57
50592;BME280;36548;50.506;30.834;2022-08-18T00:03:19;99489.80;;;22.13;67.73
50592;BME280;36548;50.506;30.834;2022-08-18T00:04:31;99481.44;;;22.00;67.76
50592;BME280;36548;50.506;30.834;2022-08-18T00:05:48;99482.44;;;22.14;67.53
50592;BME280;36548;50.506;30.834;2022-08-18T00:08:38;99479.70;;;22.14;67.55
50592;BME280;36548;50.506;30.834;2022-08-18T00:09:49;99487.77;;;22.01;67.62
50592;BME280;36548;50.506;30.834;2022-08-18T00:11:16;99489.39;;;21.95;67.81
50592;BME280;36548;50.506;30.834;2022-08-18T00:12:35;99478.16;;;22.05;67.76
50592;BME280;36548;50.506;30.834;2022-08-18T00:13:45;99486.30;;;21.83;68.09
50592;BME280;36548;50.506;30.834;2022-08-18T00:15:02;99478.07;;;21.98;68.10
50592;BME280;36548;50.506;30.834;2022-08-18T00:16:14;99485.34;;;21.91;68.03
50592;BME280;36548;50.506;30.834;2022-08-18T00:17:30;99479.49;;;21.94;67.99
50592;BME280;36548;50.506;30.834;2022-08-18T00:18:40;99480.72;;;21.91;67.85
50592;BME280;36548;50.506;30.834;2022-08-18T00:20:11;99482.62;;;21.91;67.85
50592;BME280;36548;50.506;30.834;2022-08-18T00:21:27;99494.94;;;22.02;67.93
50592;BME280;36548;50.506;30.834;2022-08-18T00:22:38;99496.47;;;21.89;67.84
50592;BME280;36548;50.506;30.834;2022-08-18T00:23:57;99480.41;;;22.01;67.96
50592;BME280;36548;50.506;30.834;2022-08-18T00:25:08;99485.73;;;21.88;67.94
50592;BME280;36548;50.506;30.834;2022-08-18T00:26:36;99497.70;;;21.87;67.78
50592;BME280;36548;50.506;30.834;2022-08-18T00:27:52;99487.05;;;21.92;67.89
50592;BME280;36548;50.506;30.834;2022-08-18T00:29:02;99491.47;;;21.78;68.04
50592;BME280;36548;50.506;30.834;2022-08-18T00:30:15;99493.37;;;21.77;67.97
50592;BME280;36548;50.506;30.834;2022-08-18T00:31:32;99485.84;;;21.79;68.36
50592;BME280;36548;50.506;30.834;2022-08-18T00:32:44;99484.55;;;21.60;68.58
50592;BME280;36548;50.506;30.834;2022-08-18T00:34:01;99491.03;;;21.74;68.34
50592;BME280;36548;50.506;30.834;2022-08-18T00:35:25;99494.16;;;21.56;68.81
50592;BME280;36548;50.506;30.834;2022-08-18T00:36:37;99491.61;;;21.55;68.98
50592;BME280;36548;50.506;30.834;2022-08-18T00:37:55;99494.59;;;21.60;69.06
50592;BME280;36548;50.506;30.834;2022-08-18T00:39:05;99497.04;;;21.40;69.32
50592;BME280;36548;50.506;30.834;2022-08-18T00:41:42;99486.22;;;21.46;69.54
50592;BME280;36548;50.506;30.834;2022-08-18T00:44:47;99484.52;;;21.45;69.50
50592;BME280;36548;50.506;30.834;2022-08-18T00:47:35;99479.27;;;21.59;68.92
50592;BME280;36548;50.506;30.834;2022-08-18T00:48:46;99480.84;;;21.38;69.29
50592;BME280;36548;50.506;30.834;2022-08-18T00:50:05;99476.73;;;21.57;68.96
50592;BME280;36548;50.506;30.834;2022-08-18T00:51:25;99479.89;;;21.46;68.98
50592;BME280;36548;50.506;30.834;2022-08-18T00:55:38;99476.45;;;21.52;69.04
50592;BME280;36548;50.506;30.834;2022-08-18T00:57:07;99491.67;;;21.32;69.26
50592;BME280;36548;50.506;30.834;2022-08-18T00:58:19;99483.76;;;21.22;69.62
50592;BME280;36548;50.506;30.834;2022-08-18T01:00:52;99485.16;;;21.18;69.76
50592;BME280;36548;50.506;30.834;2022-08-18T01:02:11;99474.35;;;21.24;70.00
50592;BME280;36548;50.506;30.834;2022-08-18T01:03:22;99480.66;;;21.10;70.11
50592;BME280;36548;50.506;30.834;2022-08-18T01:05:00;99479.89;;;21.16;70.06
50592;BME280;36548;50.506;30.834;2022-08-18T01:07:41;99490.33;;;21.12;69.85
50592;BME280;36548;50.506;30.834;2022-08-18T01:09:01;99479.53;;;21.34;69.50
50592;BME280;36548;50.506;30.834;2022-08-18T01:10:18;99488.30;;;21.29;69.30
50592;BME280;36548;50.506;30.834;2022-08-18T01:11:29;99482.55;;;21.39;68.84
50592;BME280;36548;50.506;30.834;2022-08-18T01:12:47;99482.91;;;21.51;68.66
50592;BME280;36548;50.506;30.834;2022-08-18T01:13:57;99480.66;;;21.40;68.73
50592;BME280;36548;50.506;30.834;2022-08-18T01:15:15;99479.47;;;21.57;68.45
50592;BME280;36548;50.506;30.834;2022-08-18T01:16:27;99485.73;;;21.43;68.35
50592;BME280;36548;50.506;30.834;2022-08-18T01:18:05;99486.98;;;21.55;68.41
50592;BME280;36548;50.506;30.834;2022-08-18T01:19:33;99486.12;;;21.40;68.46
50592;BME280;36548;50.506;30.834;2022-08-18T01:21:16;99482.16;;;21.42;68.60
50592;BME280;36548;50.506;30.834;2022-08-18T01:22:56;99489.32;;;21.28;68.65
50592;BME280;36548;50.506;30.834;2022-08-18T01:24:12;99482.74;;;21.38;68.78
50592;BME280;36548;50.506;30.834;2022-08-18T01:25:25;99489.02;;;21.23;68.90
50592;BME280;36548;50.506;30.834;2022-08-18T01:27:13;99485.46;;;21.23;69.03
50592;BME280;36548;50.506;30.834;2022-08-18T01:28:33;99486.67;;;21.20;69.09
50592;BME280;36548;50.506;30.834;2022-08-18T01:29:46;99487.52;;;21.06;69.39
50592;BME280;36548;50.506;30.834;2022-08-18T01:31:02;99494.95;;;21.12;69.75
50592;BME280;36548;50.506;30.834;2022-08-18T01:32:14;99492.11;;;21.05;69.43
50592;BME280;36548;50.506;30.834;2022-08-18T01:33:44;99496.92;;;21.03;69.50
50592;BME280;36548;50.506;30.834;2022-08-18T01:34:59;99482.71;;;21.08;69.83
50592;BME280;36548;50.506;30.834;2022-08-18T01:36:16;99493.13;;;20.89;70.06
50592;BME280;36548;50.506;30.834;2022-08-18T01:37:25;99496.50;;;20.91;69.83
50592;BME280;36548;50.506;30.834;2022-08-18T01:38:41;99490.86;;;20.93;70.14
50592;BME280;36548;50.506;30.834;2022-08-18T01:39:50;99488.02;;;20.86;69.94
50592;BME280;36548;50.506;30.834;2022-08-18T01:41:06;99491.73;;;21.08;69.57
50592;BME280;36548;50.506;30.834;2022-08-18T01:42:18;99495.03;;;21.04;69.33
50592;BME280;36548;50.506;30.834;2022-08-18T01:43:46;99498.33;;;21.14;68.91
50592;BME280;36548;50.506;30.834;2022-08-18T01:45:03;99488.38;;;21.21;68.78
50592;BME280;36548;50.506;30.834;2022-08-18T01:46:19;99497.48;;;21.14;68.90
50592;BME280;36548;50.506;30.834;2022-08-18T01:47:35;99498.43;;;21.21;68.71
50592;BME280;36548;50.506;30.834;2022-08-18T01:48:48;99503.97;;;21.12;68.81
50592;BME280;36548;50.506;30.834;2022-08-18T01:50:16;99494.65;;;21.07;68.95
50592;BME280;36548;50.506;30.834;2022-08-18T01:51:32;99501.16;;;21.06;69.36
50592;BME280;36548;50.506;30.834;2022-08-18T01:52:45;99498.21;;;20.92;69.34
50592;BME280;36548;50.506;30.834;2022-08-18T01:54:03;99496.35;;;21.08;69.21
50592;BME280;36548;50.506;30.834;2022-08-18T01:55:12;99495.78;;;20.98;69.21
50592;BME280;36548;50.506;30.834;2022-08-18T01:56:28;99495.70;;;21.06;69.15
50592;BME280;36548;50.506;30.834;2022-08-18T01:57:38;99493.70;;;21.00;69.11
50592;BME280;36548;50.506;30.834;2022-08-18T02:00:05;99494.16;;;20.88;69.43
50592;BME280;36548;50.506;30.834;2022-08-18T02:01:21;99501.24;;;20.98;69.27
50592;BME280;36548;50.506;30.834;2022-08-18T02:02:33;99503.17;;;20.89;69.13
50592;BME280;36548;50.506;30.834;2022-08-18T02:03:54;99495.78;;;20.98;69.46
50592;BME280;36548;50.506;30.834;2022-08-18T02:05:13;99503.92;;;20.83;69.46
50592;BME280;36548;50.506;30.834;2022-08-18T02:06:36;99503.44;;;20.79;69.53
50592;BME280;36548;50.506;30.834;2022-08-18T02:07:53;99501.39;;;20.81;69.58
50592;BME280;36548;50.506;30.834;2022-08-18T02:09:03;99503.31;;;20.72;69.41
50592;BME280;36548;50.506;30.834;2022-08-18T02:10:19;99496.50;;;20.91;69.18
50592;BME280;36548;50.506;30.834;2022-08-18T02:11:30;99504.39;;;20.86;68.93
50592;BME280;36548;50.506;30.834;2022-08-18T02:12:57;99506.35;;;20.77;69.17
50592;BME280;36548;50.506;30.834;2022-08-18T02:14:07;99494.23;;;20.80;69.28
50592;BME280;36548;50.506;30.834;2022-08-18T02:15:24;99489.84;;;20.94;69.09
50592;BME280;36548;50.506;30.834;2022-08-18T02:16:34;99502.41;;;20.80;69.08
50592;BME280;36548;50.506;30.834;2022-08-18T02:17:49;99500.10;;;20.92;69.11
50592;BME280;36548;50.506;30.834;2022-08-18T02:18:59;99499.94;;;20.70;69.15
50592;BME280;36548;50.506;30.834;2022-08-18T02:20:27;99497.03;;;20.72;69.28
50592;BME280;36548;50.506;30.834;2022-08-18T02:21:42;99494.98;;;20.74;69.52
50592;BME280;36548;50.506;30.834;2022-08-18T02:22:52;99493.95;;;20.67;69.63
50592;BME280;36548;50.506;30.834;2022-08-18T02:24:27;99497.45;;;20.84;69.07
50592;BME280;36548;50.506;30.834;2022-08-18T02:25:36;99500.77;;;20.71;69.14
50592;BME280;36548;50.506;30.834;2022-08-18T02:27:05;99505.05;;;20.65;69.39
50592;BME280;36548;50.506;30.834;2022-08-18T03:03:36;99511.19;;;20.44;70.27
50592;BME280;36548;50.506;30.834;2022-08-18T03:04:45;99513.78;;;20.37;70.26
50592;BME280;36548;50.506;30.834;2022-08-18T03:06:01;99520.75;;;20.40;70.43
50592;BME280;36548;50.506;30.834;2022-08-18T03:07:10;99513.18;;;20.27;70.64
50592;BME280;36548;50.506;30.834;2022-08-18T03:08:25;99509.98;;;20.47;70.16
50592;BME280;36548;50.506;30.834;2022-08-18T03:09:35;99512.20;;;20.43;69.90
50592;BME280;36548;50.506;30.834;2022-08-18T03:11:03;99524.39;;;20.55;69.61
50592;BME280;36548;50.506;30.834;2022-08-18T03:12:19;99511.16;;;20.75;68.87
50592;BME280;36548;50.506;30.834;2022-08-18T03:13:28;99513.32;;;20.80;68.46
50592;BME280;36548;50.506;30.834;2022-08-18T03:14:44;99506.78;;;21.04;67.96
50592;BME280;36548;50.506;30.834;2022-08-18T03:15:55;99522.52;;;20.79;68.13
50592;BME280;36548;50.506;30.834;2022-08-18T03:17:10;99512.41;;;20.88;68.24
50592;BME280;36548;50.506;30.834;2022-08-18T03:18:21;99521.87;;;20.77;68.35
50592;BME280;36548;50.506;30.834;2022-08-18T03:19:37;99514.58;;;20.92;68.35
50592;BME280;36548;50.506;30.834;2022-08-18T03:20:51;99520.73;;;20.71;68.45
50592;BME280;36548;50.506;30.834;2022-08-18T03:22:07;99517.82;;;20.73;68.78
50592;BME280;36548;50.506;30.834;2022-08-18T03:23:20;99525.16;;;20.64;68.94
50592;BME280;36548;50.506;30.834;2022-08-18T03:24:35;99519.86;;;20.71;69.11
50592;BME280;36548;50.506;30.834;2022-08-18T03:25:56;99524.39;;;20.55;69.11
50592;BME280;36548;50.506;30.834;2022-08-18T03:27:24;99531.83;;;20.70;69.17
50592;BME280;36548;50.506;30.834;2022-08-18T03:29:00;99522.06;;;20.75;68.64
50592;BME280;36548;50.506;30.834;2022-08-18T03:30:11;99528.91;;;20.71;68.53
50592;BME280;36548;50.506;30.834;2022-08-18T03:31:28;99525.68;;;20.91;68.27
50592;BME280;36548;50.506;30.834;2022-08-18T03:32:38;99525.81;;;20.74;68.08
50592;BME280;36548;50.506;30.834;2022-08-18T03:33:56;99522.61;;;21.09;67.83
50592;BME280;36548;50.506;30.834;2022-08-18T03:35:08;99524.85;;;21.05;67.35
50592;BME280;36548;50.506;30.834;2022-08-18T03:36:27;99525.10;;;21.34;67.22
50592;BME280;36548;50.506;30.834;2022-08-18T03:37:37;99529.16;;;21.38;66.89
50592;BME280;36548;50.506;30.834;2022-08-18T03:39:07;99534.23;;;21.41;65.76
50592;BME280;36548;50.506;30.834;2022-08-18T03:40:18;99523.95;;;21.43;65.45
50592;BME280;36548;50.506;30.834;2022-08-18T03:41:37;99524.00;;;21.73;65.37
50592;BME280;36548;50.506;30.834;2022-08-18T03:42:49;99532.93;;;21.67;64.76
50592;BME280;36548;50.506;30.834;2022-08-18T03:44:05;99526.03;;;22.01;64.33
50592;BME280;36548;50.506;30.834;2022-08-18T03:45:20;99533.66;;;21.90;63.21
50592;BME280;36548;50.506;30.834;2022-08-18T03:46:41;99525.93;;;22.45;63.59
50592;BME280;36548;50.506;30.834;2022-08-18T03:47:51;99531.40;;;22.45;61.45
50592;BME280;36548;50.506;30.834;2022-08-18T03:49:19;99532.39;;;22.81;62.27
50592;BME280;36548;50.506;30.834;2022-08-18T03:50:37;99529.66;;;23.31;61.07
50592;BME280;36548;50.506;30.834;2022-08-18T03:51:46;99524.55;;;23.56;60.71
50592;BME280;36548;50.506;30.834;2022-08-18T03:52:56;99531.75;;;23.99;59.54
50592;BME280;36548;50.506;30.834;2022-08-18T03:54:16;99518.55;;;24.23;56.21
50592;BME280;36548;50.506;30.834;2022-08-18T03:55:27;99528.91;;;24.34;56.75
50592;BME280;36548;50.506;30.834;2022-08-18T03:56:38;99526.64;;;24.58;55.55
50592;BME280;36548;50.506;30.834;2022-08-18T03:57:59;99521.63;;;25.08;55.99
50592;BME280;36548;50.506;30.834;2022-08-18T03:59:14;99533.05;;;25.25;54.52
50592;BME280;36548;50.506;30.834;2022-08-18T04:00:31;99525.75;;;25.78;53.93
50592;BME280;36548;50.506;30.834;2022-08-18T04:01:42;99538.80;;;25.96;52.21
50592;BME280;36548;50.506;30.834;2022-08-18T04:03:09;99528.72;;;25.76;50.43
50592;BME280;36548;50.506;30.834;2022-08-18T04:04:26;99524.09;;;26.29;52.31
50592;BME280;36548;50.506;30.834;2022-08-18T04:05:39;99534.32;;;26.53;51.98
50592;BME280;36548;50.506;30.834;2022-08-18T04:06:58;99530.80;;;26.78;48.41
50592;BME280;36548;50.506;30.834;2022-08-18T04:08:08;99530.76;;;26.85;49.23
50592;BME280;36548;50.506;30.834;2022-08-18T04:09:36;99535.72;;;27.01;49.07
50592;BME280;36548;50.506;30.834;2022-08-18T04:10:51;99528.66;;;26.80;48.94
50592;BME280;36548;50.506;30.834;2022-08-18T04:12:05;99530.53;;;26.86;49.34
50592;BME280;36548;50.506;30.834;2022-08-18T04:13:21;99534.67;;;26.96;47.33
50592;BME280;36548;50.506;30.834;2022-08-18T04:14:30;99533.42;;;26.60;47.92
50592;BME280;36548;50.506;30.834;2022-08-18T04:15:46;99529.39;;;26.62;48.89
50592;BME280;36548;50.506;30.834;2022-08-18T04:16:57;99536.50;;;26.45;48.56
50592;BME280;36548;50.506;30.834;2022-08-18T04:18:24;99529.30;;;26.44;49.81
50592;BME280;36548;50.506;30.834;2022-08-18T04:19:34;99546.42;;;26.46;48.28
50592;BME280;36548;50.506;30.834;2022-08-18T04:20:50;99535.95;;;26.29;49.09
50592;BME280;36548;50.506;30.834;2022-08-18T04:22:01;99533.63;;;26.26;49.85
50592;BME280;36548;50.506;30.834;2022-08-18T04:23:16;99527.34;;;26.12;48.60
50592;BME280;36548;50.506;30.834;2022-08-18T04:24:27;99540.05;;;26.00;49.71
50592;BME280;36548;50.506;30.834;2022-08-18T04:25:57;99533.30;;;25.96;49.26
50592;BME280;36548;50.506;30.834;2022-08-18T04:27:12;99518.52;;;25.90;50.63
50592;BME280;36548;50.506;30.834;2022-08-18T04:28:21;99530.86;;;25.74;49.78
50592;BME280;36548;50.506;30.834;2022-08-18T04:29:37;99524.00;;;25.97;50.82
50592;BME280;36548;50.506;30.834;2022-08-18T04:30:47;99525.95;;;25.83;49.53
50592;BME280;36548;50.506;30.834;2022-08-18T04:31:59;99532.95;;;25.79;49.86
50592;BME280;36548;50.506;30.834;2022-08-18T04:33:17;99521.80;;;25.60;50.32
50592;BME280;36548;50.506;30.834;2022-08-18T04:34:27;99532.80;;;25.53;50.94
50592;BME280;36548;50.506;30.834;2022-08-18T04:35:36;99528.13;;;25.61;50.83
50592;BME280;36548;50.506;30.834;2022-08-18T04:36:53;99522.39;;;25.76;50.72
50592;BME280;36548;50.506;30.834;2022-08-18T04:38:03;99524.10;;;25.70;50.44
50592;BME280;36548;50.506;30.834;2022-08-18T04:39:13;99519.42;;;25.77;50.78
50592;BME280;36548;50.506;30.834;2022-08-18T04:40:28;99517.09;;;25.81;50.00
50592;BME280;36548;50.506;30.834;2022-08-18T04:41:42;99524.95;;;25.64;50.29
50592;BME280;36548;50.506;30.834;2022-08-18T04:42:54;99528.55;;;25.71;50.78
50592;BME280;36548;50.506;30.834;2022-08-18T04:44:06;99532.34;;;25.70;50.41
50592;BME280;36548;50.506;30.834;2022-08-18T04:45:16;99529.45;;;25.51;50.76
50592;BME280;36548;50.506;30.834;2022-08-18T04:46:37;99526.41;;;25.73;50.26
50592;BME280;36548;50.506;30.834;2022-08-18T04:47:47;99531.38;;;25.38;50.92
50592;BME280;36548;50.506;30.834;2022-08-18T04:48:58;99533.03;;;25.52;51.08
50592;BME280;36548;50.506;30.834;2022-08-18T04:50:08;99528.58;;;25.58;51.02
50592;BME280;36548;50.506;30.834;2022-08-18T04:51:48;99532.55;;;25.75;50.40
50592;BME280;36548;50.506;30.834;2022-08-18T04:53:18;99540.98;;;25.74;50.51
50592;BME280;36548;50.506;30.834;2022-08-18T04:54:46;99538.06;;;25.68;50.67
50592;BME280;36548;50.506;30.834;2022-08-18T04:56:01;99534.19;;;25.90;50.21
50592;BME280;36548;50.506;30.834;2022-08-18T04:57:16;99542.06;;;25.79;49.68
50592;BME280;36548;50.506;30.834;2022-08-18T04:58:32;99535.06;;;25.83;49.98
50592;BME280;36548;50.506;30.834;2022-08-18T04:59:46;99542.75;;;25.55;50.87
50592;BME280;36548;50.506;30.834;2022-08-18T05:01:14;99545.26;;;25.69;50.89
50592;BME280;36548;50.506;30.834;2022-08-18T05:02:31;99545.77;;;25.98;50.23
50592;BME280;36548;50.506;30.834;2022-08-18T05:03:42;99543.47;;;25.95;50.04
50592;BME280;36548;50.506;30.834;2022-08-18T05:04:58;99538.34;;;26.12;50.12
50592;BME280;36548;50.506;30.834;2022-08-18T05:06:11;99547.04;;;26.09;49.69
50592;BME280;36548;50.506;30.834;2022-08-18T05:07:26;99535.98;;;26.23;49.48
50592;BME280;36548;50.506;30.834;2022-08-18T05:08:36;99543.82;;;26.19;49.50
50592;BME280;36548;50.506;30.834;2022-08-18T05:09:51;99538.45;;;26.37;49.09
50592;BME280;36548;50.506;30.834;2022-08-18T05:11:03;99544.37;;;26.34;48.74
50592;BME280;36548;50.506;30.834;2022-08-18T05:12:15;99545.84;;;26.37;48.43
50592;BME280;36548;50.506;30.834;2022-08-18T05:13:30;99550.64;;;26.48;48.59
50592;BME280;36548;50.506;30.834;2022-08-18T05:14:41;99561.91;;;26.40;48.07
50592;BME280;36548;50.506;30.834;2022-08-18T05:15:59;99544.88;;;26.57;48.43
50592;BME280;36548;50.506;30.834;2022-08-18T05:17:15;99554.87;;;26.51;48.31
50592;BME280;36548;50.506;30.834;2022-08-18T05:18:42;99560.38;;;26.51;48.47
50592;BME280;36548;50.506;30.834;2022-08-18T05:19:58;99551.59;;;26.67;48.16
50592;BME280;36548;50.506;30.834;2022-08-18T05:21:10;99554.84;;;26.58;47.71
50592;BME280;36548;50.506;30.834;2022-08-18T05:22:29;99553.29;;;26.68;47.99
50592;BME280;36548;50.506;30.834;2022-08-18T05:23:41;99550.80;;;26.60;47.84
50592;BME280;36548;50.506;30.834;2022-08-18T05:25:10;99550.39;;;26.57;47.65
50592;BME280;36548;50.506;30.834;2022-08-18T05:26:27;99546.13;;;26.61;48.08
50592;BME280;36548;50.506;30.834;2022-08-18T05:27:38;99545.11;;;26.55;48.17
50592;BME280;36548;50.506;30.834;2022-08-18T05:28:54;99543.10;;;26.76;48.21
50592;BME280;36548;50.506;30.834;2022-08-18T05:30:07;99547.14;;;26.73;48.29
50592;BME280;36548;50.506;30.834;2022-08-18T05:31:34;99546.64;;;26.83;48.09
50592;BME280;36548;50.506;30.834;2022-08-18T05:32:49;99544.81;;;27.02;47.03
50592;BME280;36548;50.506;30.834;2022-08-18T05:33:59;99543.28;;;26.81;47.58
50592;BME280;36548;50.506;30.834;2022-08-18T05:35:24;99541.27;;;26.95;48.21
50592;BME280;36548;50.506;30.834;2022-08-18T05:39:55;99542.44;;;27.05;46.88
50592;BME280;36548;50.506;30.834;2022-08-18T05:41:30;99551.20;;;26.96;47.01
50592;BME280;36548;50.506;30.834;2022-08-18T05:42:41;99546.88;;;27.07;46.83
50592;BME280;36548;50.506;30.834;2022-08-18T05:43:52;99544.53;;;27.10;46.75
50592;BME280;36548;50.506;30.834;2022-08-18T05:45:07;99554.03;;;27.14;47.52
50592;BME280;36548;50.506;30.834;2022-08-18T05:46:25;99543.25;;;27.38;46.67
50592;BME280;36548;50.506;30.834;2022-08-18T05:47:34;99548.19;;;27.29;46.35
50592;BME280;36548;50.506;30.834;2022-08-18T05:48:49;99542.39;;;27.37;46.77
50592;BME280;36548;50.506;30.834;2022-08-18T05:50:15;99547.15;;;27.23;46.85
50592;BME280;36548;50.506;30.834;2022-08-18T05:53:07;99541.27;;;27.45;45.84
50592;BME280;36548;50.506;30.834;2022-08-18T05:54:21;99540.12;;;27.28;45.84
50592;BME280;36548;50.506;30.834;2022-08-18T05:55:58;99537.52;;;27.39;46.40
50592;BME280;36548;50.506;30.834;2022-08-18T05:57:31;99538.22;;;27.53;45.67
50592;BME280;36548;50.506;30.834;2022-08-18T05:58:43;99547.61;;;27.46;45.64
50592;BME280;36548;50.506;30.834;2022-08-18T05:59:58;99540.34;;;27.26;46.40
50592;BME280;36548;50.506;30.834;2022-08-18T06:02:43;99540.14;;;27.53;46.28
50592;BME280;36548;50.506;30.834;2022-08-18T06:04:05;99541.03;;;27.47;45.32
50592;BME280;36548;50.506;30.834;2022-08-18T06:05:24;99544.27;;;27.62;45.32
50592;BME280;36548;50.506;30.834;2022-08-18T06:06:36;99549.18;;;27.60;45.55
50592;BME280;36548;50.506;30.834;2022-08-18T06:08:12;99558.98;;;27.75;45.47
50592;BME280;36548;50.506;30.834;2022-08-18T06:09:32;99541.00;;;27.90;44.42
50592;BME280;36548;50.506;30.834;2022-08-18T06:10:47;99547.61;;;27.46;45.47
50592;BME280;36548;50.506;30.834;2022-08-18T06:13:42;99543.43;;;27.80;44.84
50592;BME280;36548;50.506;30.834;2022-08-18T06:25:47;99557.39;;;27.67;45.26
50592;BME280;36548;50.506;30.834;2022-08-18T06:28:31;99550.94;;;28.29;44.49
50592;BME280;36548;50.506;30.834;2022-08-18T06:31:31;99553.02;;;27.96;43.83
50592;BME280;36548;50.506;30.834;2022-08-18T06:33:06;99557.39;;;27.67;44.54
50592;BME280;36548;50.506;30.834;2022-08-18T06:40:05;99549.18;;;27.60;45.31
50592;BME280;36548;50.506;30.834;2022-08-18T06:41:22;99556.39;;;27.61;45.28
50592;BME280;36548;50.506;30.834;2022-08-18T06:42:31;99555.92;;;27.83;45.02
50592;BME280;36548;50.506;30.834;2022-08-18T06:43:55;99556.09;;;28.06;44.53
50592;BME280;36548;50.506;30.834;2022-08-18T06:45:14;99544.91;;;28.20;44.25
50592;BME280;36548;50.506;30.834;2022-08-18T06:49:22;99552.98;;;27.15;46.10
50592;BME280;36548;50.506;30.834;2022-08-18T06:50:36;99555.83;;;27.02;46.22
50592;BME280;36548;50.506;30.834;2022-08-18T06:51:52;99552.11;;;27.15;46.48
50592;BME280;36548;50.506;30.834;2022-08-18T06:53:05;99552.28;;;27.20;46.21
50592;BME280;36548;50.506;30.834;2022-08-18T06:54:35;99545.80;;;27.33;45.81
50592;BME280;36548;50.506;30.834;2022-08-18T06:55:54;99554.46;;;27.62;45.81
50592;BME280;36548;50.506;30.834;2022-08-18T06:57:04;99551.87;;;27.67;45.70
50592;BME280;36548;50.506;30.834;2022-08-18T06:58:26;99546.82;;;27.82;45.03
50592;BME280;36548;50.506;30.834;2022-08-18T06:59:37;99545.75;;;27.83;44.88
50592;BME280;36548;50.506;30.834;2022-08-18T07:01:06;99549.78;;;27.62;44.87
50592;BME280;36548;50.506;30.834;2022-08-18T07:03:46;99546.75;;;28.08;44.14
50592;BME280;36548;50.506;30.834;2022-08-18T07:06:24;99543.21;;;28.19;44.03
50592;BME280;36548;50.506;30.834;2022-08-18T07:07:40;99555.94;;;28.20;43.34
50592;BME280;36548;50.506;30.834;2022-08-18T07:09:23;99545.65;;;28.27;43.13
50592;BME280;36548;50.506;30.834;2022-08-18T07:10:37;99549.78;;;28.36;43.53
50592;BME280;36548;50.506;30.834;2022-08-18T07:12:08;99560.67;;;27.76;43.54
50592;BME280;36548;50.506;30.834;2022-08-18T07:13:24;99556.09;;;27.69;44.17
50592;BME280;36548;50.506;30.834;2022-08-18T07:14:46;99559.58;;;27.58;44.31
50592;BME280;36548;50.506;30.834;2022-08-18T07:16:14;99557.81;;;27.64;44.30
50592;BME280;36548;50.506;30.834;2022-08-18T07:17:34;99549.55;;;27.64;44.86
50592;BME280;36548;50.506;30.834;2022-08-18T07:18:50;99551.64;;;27.68;45.13
50592;BME280;36548;50.506;30.834;2022-08-18T07:20:20;99552.34;;;27.82;44.66
50592;BME280;36548;50.506;30.834;2022-08-18T07:21:32;99557.15;;;27.87;45.03
50592;BME280;36548;50.506;30.834;2022-08-18T07:23:02;99557.23;;;27.99;44.72
50592;BME280;36548;50.506;30.834;2022-08-18T07:26:00;99547.14;;;28.11;44.51
50592;BME280;36548;50.506;30.834;2022-08-18T07:27:16;99556.73;;;28.09;44.75
50592;BME280;36548;50.506;30.834;2022-08-18T07:28:29;99554.25;;;28.19;44.62
50592;BME280;36548;50.506;30.834;2022-08-18T07:30:11;99560.44;;;28.33;44.44
50592;BME280;36548;50.506;30.834;2022-08-18T07:31:41;99558.53;;;28.33;44.39
50592;BME280;36548;50.506;30.834;2022-08-18T07:33:08;99570.08;;;27.68;44.29
50592;BME280;36548;50.506;30.834;2022-08-18T07:34:32;99565.78;;;27.03;46.09
50592;BME280;36548;50.506;30.834;2022-08-18T07:35:47;99578.25;;;26.74;46.59
50592;BME280;36548;50.506;30.834;2022-08-18T07:38:49;99569.99;;;26.74;47.02
50592;BME280;36548;50.506;30.834;2022-08-18T07:40:21;99570.02;;;26.28;48.09
50592;BME280;36548;50.506;30.834;2022-08-18T07:41:42;99576.61;;;26.20;48.07
50592;BME280;36548;50.506;30.834;2022-08-18T07:43:19;99579.55;;;26.26;48.42
50592;BME280;36548;50.506;30.834;2022-08-18T07:44:48;99573.49;;;25.97;49.14
50592;BME280;36548;50.506;30.834;2022-08-18T07:46:02;99570.52;;;25.98;49.03
50592;BME280;36548;50.506;30.834;2022-08-18T07:48:39;99572.53;;;26.36;47.96
50592;BME280;36548;50.506;30.834;2022-08-18T07:49:48;99575.50;;;26.35;48.05
50592;BME280;36548;50.506;30.834;2022-08-18T07:51:11;99576.66;;;26.52;48.19
50592;BME280;36548;50.506;30.834;2022-08-18T07:56:42;99579.38;;;26.98;46.43
50592;BME280;36548;50.506;30.834;2022-08-18T07:59:49;99580.32;;;26.85;46.58
50592;BME280;36548;50.506;30.834;2022-08-18T08:01:21;99588.70;;;26.97;46.56
50592;BME280;36548;50.506;30.834;2022-08-18T08:02:54;99583.50;;;26.82;46.40
50592;BME280;36548;50.506;30.834;2022-08-18T08:07:31;99584.84;;;26.27;46.68
50592;BME280;36548;50.506;30.834;2022-08-18T08:09:09;99568.82;;;26.56;47.17
50592;BME280;36548;50.506;30.834;2022-08-18T08:10:46;99574.33;;;26.56;47.13
50592;BME280;36548;50.506;30.834;2022-08-18T08:12:03;99568.06;;;26.81;46.61
50592;BME280;36548;50.506;30.834;2022-08-18T08:13:32;99574.67;;;26.66;46.19
50592;BME280;36548;50.506;30.834;2022-08-18T08:15:10;99579.83;;;26.56;46.67
50592;BME280;36548;50.506;30.834;2022-08-18T08:16:35;99564.53;;;26.67;46.97
50592;BME280;36548;50.506;30.834;2022-08-18T08:21:02;99579.89;;;25.77;47.66
50592;BME280;36548;50.506;30.834;2022-08-18T08:22:21;99582.03;;;25.75;48.44
50592;BME280;36548;50.506;30.834;2022-08-18T08:23:53;99570.40;;;25.66;48.58
50592;BME280;36548;50.506;30.834;2022-08-18T08:25:24;99572.92;;;25.75;48.82
50592;BME280;36548;50.506;30.834;2022-08-18T08:26:45;99579.66;;;25.85;48.22
50592;BME280;36548;50.506;30.834;2022-08-18T08:30:05;99574.72;;;26.21;48.02